sensor_id;sensor_type;location;lat;lon;timestamp;pressure;altitude;pressure_sealevel;temperature;humidity
49297;BME280;35163;48.878;18.040;2023-05-03T00:02:06;98839.66;;;13.36;87.91
49297;BME280;35163;48.878;18.040;2023-05-03T00:04:33;98836.31;;;13.33;88.41
49297;BME280;35163;48.878;18.040;2023-05-03T00:07:00;98832.34;;;13.22;89.34
49297;BME280;35163;48.878;18.040;2023-05-03T00:09:26;98843.94;;;13.12;90.54
49297;BME280;35163;48.878;18.040;2023-05-03T00:11:59;98855.09;;;13.16;90.58
49297;BME280;35163;48.878;18.040;2023-05-03T00:14:26;98837.03;;;13.12;90.82
49297;BME280;35163;48.878;18.040;2023-05-03T00:16:53;98834.91;;;12.98;91.04
49297;BME280;35163;48.878;18.040;2023-05-03T00:19:20;98837.50;;;12.98;92.38
49297;BME280;35163;48.878;18.040;2023-05-03T00:21:57;98831.69;;;12.92;92.74
49297;BME280;35163;48.878;18.040;2023-05-03T00:24:24;98839.69;;;12.85;92.93
49297;BME280;35163;48.878;18.040;2023-05-03T00:26:50;98828.78;;;12.75;93.25
49297;BME280;35163;48.878;18.040;2023-05-03T00:29:17;98830.63;;;12.72;93.07
49297;BME280;35163;48.878;18.040;2023-05-03T00:31:46;98832.41;;;12.70;94.20
49297;BME280;35163;48.878;18.040;2023-05-03T00:34:13;98835.00;;;12.70;92.87
49297;BME280;35163;48.878;18.040;2023-05-03T00:36:39;98838.59;;;12.66;94.34
49297;BME280;35163;48.878;18.040;2023-05-03T00:39:06;98840.38;;;12.65;94.16
49297;BME280;35163;48.878;18.040;2023-05-03T00:41:33;98835.31;;;12.60;93.76
49297;BME280;35163;48.878;18.040;2023-05-03T00:44:00;98843.19;;;12.57;95.08
49297;BME280;35163;48.878;18.040;2023-05-03T00:46:28;98850.97;;;12.57;95.68
49297;BME280;35163;48.878;18.040;2023-05-03T00:48:55;98855.34;;;12.55;94.33
49297;BME280;35163;48.878;18.040;2023-05-03T00:51:22;98847.63;;;12.54;94.98
49297;BME280;35163;48.878;18.040;2023-05-03T00:53:49;98849.28;;;12.56;96.07
49297;BME280;35163;48.878;18.040;2023-05-03T00:56:18;98846.59;;;12.59;94.61
49297;BME280;35163;48.878;18.040;2023-05-03T00:58:51;98848.97;;;12.66;94.80
49297;BME280;35163;48.878;18.040;2023-05-03T01:01:18;98851.94;;;12.55;94.85
49297;BME280;35163;48.878;18.040;2023-05-03T01:03:46;98844.00;;;12.59;95.74
49297;BME280;35163;48.878;18.040;2023-05-03T01:06:44;98846.09;;;12.48;95.61
49297;BME280;35163;48.878;18.040;2023-05-03T01:09:25;98845.91;;;12.54;96.24
49297;BME280;35163;48.878;18.040;2023-05-03T01:12:02;98840.88;;;12.49;95.37
49297;BME280;35163;48.878;18.040;2023-05-03T01:17:11;98842.91;;;12.39;95.53
49297;BME280;35163;48.878;18.040;2023-05-03T01:19:43;98835.91;;;12.42;95.65
49297;BME280;35163;48.878;18.040;2023-05-03T01:25:07;98831.91;;;12.31;96.51
49297;BME280;35163;48.878;18.040;2023-05-03T01:27:35;98829.44;;;12.28;96.35
49297;BME280;35163;48.878;18.040;2023-05-03T01:30:07;98835.53;;;12.27;95.66
49297;BME280;35163;48.878;18.040;2023-05-03T01:35:28;98831.31;;;12.23;96.35
49297;BME280;35163;48.878;18.040;2023-05-03T01:37:56;98834.63;;;12.28;95.12
49297;BME280;35163;48.878;18.040;2023-05-03T01:40:24;98838.91;;;12.29;95.26
49297;BME280;35163;48.878;18.040;2023-05-03T01:42:54;98839.78;;;12.28;95.36
49297;BME280;35163;48.878;18.040;2023-05-03T01:45:21;98830.50;;;12.22;95.98
49297;BME280;35163;48.878;18.040;2023-05-03T01:47:48;98830.75;;;12.13;95.02
49297;BME280;35163;48.878;18.040;2023-05-03T01:50:16;98827.28;;;12.14;95.75
49297;BME280;35163;48.878;18.040;2023-05-03T01:52:43;98837.63;;;12.15;95.72
49297;BME280;35163;48.878;18.040;2023-05-03T01:55:10;98838.59;;;12.11;96.02
49297;BME280;35163;48.878;18.040;2023-05-03T01:57:37;98827.38;;;12.11;96.28
49297;BME280;35163;48.878;18.040;2023-05-03T02:00:04;98822.41;;;12.03;96.48
49297;BME280;35163;48.878;18.040;2023-05-03T02:02:32;98825.69;;;12.08;96.74
49297;BME280;35163;48.878;18.040;2023-05-03T02:04:59;98824.03;;;12.06;96.84
49297;BME280;35163;48.878;18.040;2023-05-03T02:07:25;98825.88;;;12.02;97.97
49297;BME280;35163;48.878;18.040;2023-05-03T02:09:52;98826.72;;;12.02;98.08
49297;BME280;35163;48.878;18.040;2023-05-03T02:12:18;98831.03;;;12.03;97.43
49297;BME280;35163;48.878;18.040;2023-05-03T02:14:45;98831.97;;;12.01;97.68
49297;BME280;35163;48.878;18.040;2023-05-03T02:17:12;98828.56;;;11.99;98.50
49297;BME280;35163;48.878;18.040;2023-05-03T02:19:38;98826.63;;;12.06;97.41
49297;BME280;35163;48.878;18.040;2023-05-03T02:22:05;98819.97;;;11.97;97.75
49297;BME280;35163;48.878;18.040;2023-05-03T02:24:32;98828.41;;;12.05;96.83
49297;BME280;35163;48.878;18.040;2023-05-03T02:27:02;98823.22;;;12.05;96.56
49297;BME280;35163;48.878;18.040;2023-05-03T02:29:34;98828.22;;;12.11;97.51
49297;BME280;35163;48.878;18.040;2023-05-03T02:32:01;98833.47;;;12.08;95.50
49297;BME280;35163;48.878;18.040;2023-05-03T02:34:31;98824.91;;;12.06;95.82
49297;BME280;35163;48.878;18.040;2023-05-03T02:36:58;98830.09;;;12.06;95.94
49297;BME280;35163;48.878;18.040;2023-05-03T02:39:25;98822.25;;;12.08;95.47
49297;BME280;35163;48.878;18.040;2023-05-03T02:41:52;98816.31;;;12.04;95.69
49297;BME280;35163;48.878;18.040;2023-05-03T02:44:18;98818.81;;;12.07;95.19
49297;BME280;35163;48.878;18.040;2023-05-03T02:46:45;98824.81;;;12.09;94.43
49297;BME280;35163;48.878;18.040;2023-05-03T02:49:12;98819.59;;;12.11;94.62
49297;BME280;35163;48.878;18.040;2023-05-03T02:51:38;98823.03;;;12.11;95.02
49297;BME280;35163;48.878;18.040;2023-05-03T02:54:05;98811.88;;;12.08;95.41
49297;BME280;35163;48.878;18.040;2023-05-03T02:56:34;98819.72;;;12.06;95.13
49297;BME280;35163;48.878;18.040;2023-05-03T02:59:00;98828.28;;;12.08;95.73
49297;BME280;35163;48.878;18.040;2023-05-03T03:01:27;98822.56;;;11.98;95.64
49297;BME280;35163;48.878;18.040;2023-05-03T03:03:55;98826.97;;;11.95;96.06
49297;BME280;35163;48.878;18.040;2023-05-03T03:06:22;98817.38;;;11.98;96.87
49297;BME280;35163;48.878;18.040;2023-05-03T03:08:48;98820.78;;;11.99;96.53
49297;BME280;35163;48.878;18.040;2023-05-03T03:11:15;98813.00;;;11.99;96.06
49297;BME280;35163;48.878;18.040;2023-05-03T03:13:42;98806.97;;;12.00;95.68
49297;BME280;35163;48.878;18.040;2023-05-03T03:16:09;98816.63;;;11.95;95.90
49297;BME280;35163;48.878;18.040;2023-05-03T03:18:36;98817.59;;;11.90;95.79
49297;BME280;35163;48.878;18.040;2023-05-03T03:21:03;98818.41;;;11.93;95.02
49297;BME280;35163;48.878;18.040;2023-05-03T03:23:29;98827.09;;;11.91;95.37
49297;BME280;35163;48.878;18.040;2023-05-03T03:25:56;98828.75;;;11.93;95.64
49297;BME280;35163;48.878;18.040;2023-05-03T03:28:23;98832.22;;;11.93;96.21
49297;BME280;35163;48.878;18.040;2023-05-03T03:30:49;98837.47;;;11.90;95.96
49297;BME280;35163;48.878;18.040;2023-05-03T03:33:16;98830.75;;;11.84;95.09
49297;BME280;35163;48.878;18.040;2023-05-03T03:35:43;98834.03;;;11.89;95.04
49297;BME280;35163;48.878;18.040;2023-05-03T03:38:12;98842.63;;;11.91;95.16
49297;BME280;35163;48.878;18.040;2023-05-03T03:40:41;98844.50;;;11.86;94.28
49297;BME280;35163;48.878;18.040;2023-05-03T03:43:08;98847.94;;;11.87;95.32
49297;BME280;35163;48.878;18.040;2023-05-03T03:45:35;98853.06;;;11.88;94.57
49297;BME280;35163;48.878;18.040;2023-05-03T03:48:02;98848.72;;;11.89;94.67
49297;BME280;35163;48.878;18.040;2023-05-03T03:50:28;98852.03;;;11.94;94.31
49297;BME280;35163;48.878;18.040;2023-05-03T03:52:55;98854.31;;;12.05;93.80
49297;BME280;35163;48.878;18.040;2023-05-03T03:55:22;98855.94;;;12.09;94.00
49297;BME280;35163;48.878;18.040;2023-05-03T03:57:51;98862.84;;;12.10;92.99
49297;BME280;35163;48.878;18.040;2023-05-03T04:00:18;98862.84;;;12.09;92.31
49297;BME280;35163;48.878;18.040;2023-05-03T04:02:44;98866.38;;;12.06;92.53
49297;BME280;35163;48.878;18.040;2023-05-03T04:05:12;98857.78;;;12.04;93.24
49297;BME280;35163;48.878;18.040;2023-05-03T04:07:39;98858.63;;;12.05;94.29
49297;BME280;35163;48.878;18.040;2023-05-03T04:10:06;98864.78;;;12.00;93.78
49297;BME280;35163;48.878;18.040;2023-05-03T04:12:33;98879.59;;;11.97;94.37
49297;BME280;35163;48.878;18.040;2023-05-03T04:15:00;98874.38;;;11.98;94.73
49297;BME280;35163;48.878;18.040;2023-05-03T04:17:26;98885.69;;;11.96;94.72
49297;BME280;35163;48.878;18.040;2023-05-03T04:19:54;98888.13;;;12.00;95.18
49297;BME280;35163;48.878;18.040;2023-05-03T04:22:21;98885.31;;;12.08;94.31
49297;BME280;35163;48.878;18.040;2023-05-03T04:24:48;98893.03;;;12.11;94.61
49297;BME280;35163;48.878;18.040;2023-05-03T04:27:15;98899.81;;;12.15;94.79
49297;BME280;35163;48.878;18.040;2023-05-03T04:29:43;98901.38;;;12.21;93.35
49297;BME280;35163;48.878;18.040;2023-05-03T04:32:10;98902.22;;;12.22;92.85
49297;BME280;35163;48.878;18.040;2023-05-03T04:34:39;98903.09;;;12.22;93.12
49297;BME280;35163;48.878;18.040;2023-05-03T04:37:07;98908.22;;;12.24;92.59
49297;BME280;35163;48.878;18.040;2023-05-03T04:39:35;98905.72;;;12.21;92.47
49297;BME280;35163;48.878;18.040;2023-05-03T04:42:01;98904.00;;;12.20;93.52
49297;BME280;35163;48.878;18.040;2023-05-03T04:44:29;98911.63;;;12.24;92.26
49297;BME280;35163;48.878;18.040;2023-05-03T04:46:55;98905.63;;;12.24;93.21
49297;BME280;35163;48.878;18.040;2023-05-03T04:49:22;98904.63;;;12.28;93.47
49297;BME280;35163;48.878;18.040;2023-05-03T04:51:49;98909.81;;;12.28;93.93
49297;BME280;35163;48.878;18.040;2023-05-03T04:54:19;98908.00;;;12.30;92.24
49297;BME280;35163;48.878;18.040;2023-05-03T04:56:46;98914.88;;;12.33;92.32
49297;BME280;35163;48.878;18.040;2023-05-03T04:59:13;98921.09;;;12.27;91.76
49297;BME280;35163;48.878;18.040;2023-05-03T05:01:39;98924.78;;;12.18;91.47
49297;BME280;35163;48.878;18.040;2023-05-03T05:04:06;98912.66;;;12.20;92.26
49297;BME280;35163;48.878;18.040;2023-05-03T05:06:33;98924.75;;;12.20;92.09
49297;BME280;35163;48.878;18.040;2023-05-03T05:09:00;98917.69;;;12.25;92.08
49297;BME280;35163;48.878;18.040;2023-05-03T05:11:27;98918.59;;;12.24;91.75
49297;BME280;35163;48.878;18.040;2023-05-03T05:13:53;98915.00;;;12.28;92.15
49297;BME280;35163;48.878;18.040;2023-05-03T05:16:20;98926.41;;;12.22;92.52
49297;BME280;35163;48.878;18.040;2023-05-03T05:18:47;98922.00;;;12.24;92.67
49297;BME280;35163;48.878;18.040;2023-05-03T05:21:14;98924.56;;;12.26;92.86
49297;BME280;35163;48.878;18.040;2023-05-03T05:23:40;98923.63;;;12.29;91.63
49297;BME280;35163;48.878;18.040;2023-05-03T05:26:09;98931.34;;;12.30;92.70
49297;BME280;35163;48.878;18.040;2023-05-03T05:28:36;98929.66;;;12.29;91.40
49297;BME280;35163;48.878;18.040;2023-05-03T05:31:02;98925.25;;;12.31;91.10
49297;BME280;35163;48.878;18.040;2023-05-03T05:33:29;98925.19;;;12.34;90.20
49297;BME280;35163;48.878;18.040;2023-05-03T05:35:56;98934.00;;;12.29;90.22
49297;BME280;35163;48.878;18.040;2023-05-03T05:38:23;98939.19;;;12.29;90.50
49297;BME280;35163;48.878;18.040;2023-05-03T05:40:49;98932.16;;;12.32;90.04
49297;BME280;35163;48.878;18.040;2023-05-03T05:43:16;98939.09;;;12.32;90.34
49297;BME280;35163;48.878;18.040;2023-05-03T05:45:43;98941.53;;;12.36;88.78
49297;BME280;35163;48.878;18.040;2023-05-03T05:48:10;98939.75;;;12.38;89.39
49297;BME280;35163;48.878;18.040;2023-05-03T05:50:36;98949.25;;;12.38;90.26
49297;BME280;35163;48.878;18.040;2023-05-03T05:53:03;98952.66;;;12.40;88.67
49297;BME280;35163;48.878;18.040;2023-05-03T05:55:29;98950.72;;;12.47;89.40
49297;BME280;35163;48.878;18.040;2023-05-03T05:57:56;98950.66;;;12.50;87.51
49297;BME280;35163;48.878;18.040;2023-05-03T06:00:23;98950.69;;;12.48;87.24
49297;BME280;35163;48.878;18.040;2023-05-03T06:02:50;98950.88;;;12.42;87.57
49297;BME280;35163;48.878;18.040;2023-05-03T06:05:17;98958.56;;;12.45;87.11
49297;BME280;35163;48.878;18.040;2023-05-03T06:07:44;98951.72;;;12.43;87.93
49297;BME280;35163;48.878;18.040;2023-05-03T06:10:11;98964.59;;;12.46;87.68
49297;BME280;35163;48.878;18.040;2023-05-03T06:12:38;98955.97;;;12.45;88.46
49297;BME280;35163;48.878;18.040;2023-05-03T06:15:05;98966.16;;;12.51;87.70
49297;BME280;35163;48.878;18.040;2023-05-03T06:17:33;98963.53;;;12.53;87.72
49297;BME280;35163;48.878;18.040;2023-05-03T06:20:00;98975.38;;;12.60;86.82
49297;BME280;35163;48.878;18.040;2023-05-03T06:22:27;98980.50;;;12.63;86.94
49297;BME280;35163;48.878;18.040;2023-05-03T06:24:54;98972.78;;;12.60;85.74
49297;BME280;35163;48.878;18.040;2023-05-03T06:27:21;98973.44;;;12.67;85.53
49297;BME280;35163;48.878;18.040;2023-05-03T06:29:48;98975.13;;;12.70;85.05
49297;BME280;35163;48.878;18.040;2023-05-03T06:32:15;98978.69;;;12.66;84.82
49297;BME280;35163;48.878;18.040;2023-05-03T06:34:42;98976.91;;;12.68;85.04
49297;BME280;35163;48.878;18.040;2023-05-03T06:37:09;98977.81;;;12.67;84.89
49297;BME280;35163;48.878;18.040;2023-05-03T06:39:35;98985.59;;;12.67;84.74
49297;BME280;35163;48.878;18.040;2023-05-03T06:42:02;98982.84;;;12.71;86.34
49297;BME280;35163;48.878;18.040;2023-05-03T06:44:29;98984.47;;;12.75;85.67
49297;BME280;35163;48.878;18.040;2023-05-03T06:46:55;98987.88;;;12.76;86.20
49297;BME280;35163;48.878;18.040;2023-05-03T06:49:24;98987.00;;;12.77;86.88
49297;BME280;35163;48.878;18.040;2023-05-03T06:51:50;98979.88;;;12.84;86.54
49297;BME280;35163;48.878;18.040;2023-05-03T06:54:17;98990.25;;;12.84;87.67
49297;BME280;35163;48.878;18.040;2023-05-03T06:56:45;98983.13;;;12.91;85.98
49297;BME280;35163;48.878;18.040;2023-05-03T06:59:12;98995.22;;;12.90;86.85
49297;BME280;35163;48.878;18.040;2023-05-03T07:01:38;98994.91;;;13.01;87.45
49297;BME280;35163;48.878;18.040;2023-05-03T07:04:05;98993.00;;;13.06;85.91
49297;BME280;35163;48.878;18.040;2023-05-03T07:06:32;98996.47;;;13.05;85.21
49297;BME280;35163;48.878;18.040;2023-05-03T07:09:19;98994.59;;;13.10;85.61
49297;BME280;35163;48.878;18.040;2023-05-03T07:11:57;98992.69;;;13.16;85.23
49297;BME280;35163;48.878;18.040;2023-05-03T07:14:23;98992.69;;;13.16;84.93
49297;BME280;35163;48.878;18.040;2023-05-03T07:16:52;98992.59;;;13.19;84.46
49297;BME280;35163;48.878;18.040;2023-05-03T07:19:22;99002.97;;;13.19;84.19
49297;BME280;35163;48.878;18.040;2023-05-03T07:21:48;99003.66;;;13.24;84.14
49297;BME280;35163;48.878;18.040;2023-05-03T07:24:16;99009.66;;;13.26;83.80
49297;BME280;35163;48.878;18.040;2023-05-03T07:26:42;99000.19;;;13.25;84.13
49297;BME280;35163;48.878;18.040;2023-05-03T07:29:14;99002.78;;;13.25;84.04
49297;BME280;35163;48.878;18.040;2023-05-03T07:31:41;99011.41;;;13.25;84.29
49297;BME280;35163;48.878;18.040;2023-05-03T07:34:07;99012.31;;;13.24;84.47
49297;BME280;35163;48.878;18.040;2023-05-03T07:36:34;99007.13;;;13.24;85.13
49297;BME280;35163;48.878;18.040;2023-05-03T07:39:01;99009.56;;;13.29;85.01
49297;BME280;35163;48.878;18.040;2023-05-03T07:41:27;99007.97;;;13.25;84.47
49297;BME280;35163;48.878;18.040;2023-05-03T07:43:54;99009.66;;;13.26;85.07
49297;BME280;35163;48.878;18.040;2023-05-03T07:46:21;99011.22;;;13.32;84.94
49297;BME280;35163;48.878;18.040;2023-05-03T07:48:48;99011.13;;;13.35;84.59
49297;BME280;35163;48.878;18.040;2023-05-03T07:51:18;99003.38;;;13.33;84.03
49297;BME280;35163;48.878;18.040;2023-05-03T07:53:44;99011.06;;;13.36;84.10
49297;BME280;35163;48.878;18.040;2023-05-03T07:56:11;99014.47;;;13.39;83.97
49297;BME280;35163;48.878;18.040;2023-05-03T07:58:38;99012.31;;;13.24;82.85
49297;BME280;35163;48.878;18.040;2023-05-03T08:01:08;99013.75;;;13.33;83.31
49297;BME280;35163;48.878;18.040;2023-05-03T08:03:38;99013.16;;;13.25;83.44
49297;BME280;35163;48.878;18.040;2023-05-03T08:06:05;99017.44;;;13.26;83.62
49297;BME280;35163;48.878;18.040;2023-05-03T08:08:32;99010.53;;;13.27;83.85
49297;BME280;35163;48.878;18.040;2023-05-03T08:10:59;99019.25;;;13.24;84.04
49297;BME280;35163;48.878;18.040;2023-05-03T08:13:26;99017.28;;;13.32;83.38
49297;BME280;35163;48.878;18.040;2023-05-03T08:15:52;99013.88;;;13.30;83.26
49297;BME280;35163;48.878;18.040;2023-05-03T08:18:19;99011.38;;;13.27;83.22
49297;BME280;35163;48.878;18.040;2023-05-03T08:20:49;99024.44;;;13.24;85.61
49297;BME280;35163;48.878;18.040;2023-05-03T08:23:16;99029.59;;;13.25;85.21
49297;BME280;35163;48.878;18.040;2023-05-03T08:25:43;99026.97;;;13.25;85.79
49297;BME280;35163;48.878;18.040;2023-05-03T08:28:10;99025.13;;;13.29;86.04
49297;BME280;35163;48.878;18.040;2023-05-03T08:30:37;99030.34;;;13.29;86.63
49297;BME280;35163;48.878;18.040;2023-05-03T08:33:04;99025.06;;;13.32;87.83
49297;BME280;35163;48.878;18.040;2023-05-03T08:35:30;99035.13;;;13.42;85.54
49297;BME280;35163;48.878;18.040;2023-05-03T08:37:57;99038.53;;;13.44;84.21
49297;BME280;35163;48.878;18.040;2023-05-03T08:40:26;99036.75;;;13.46;83.33
49297;BME280;35163;48.878;18.040;2023-05-03T08:42:55;99030.56;;;13.48;83.64
49297;BME280;35163;48.878;18.040;2023-05-03T08:45:25;99036.63;;;13.49;82.82
49297;BME280;35163;48.878;18.040;2023-05-03T08:47:54;99040.03;;;13.51;82.49
49297;BME280;35163;48.878;18.040;2023-05-03T08:50:21;99046.94;;;13.52;81.54
49297;BME280;35163;48.878;18.040;2023-05-03T08:52:49;99043.31;;;13.58;81.03
49297;BME280;35163;48.878;18.040;2023-05-03T08:55:16;99045.91;;;13.58;81.22
49297;BME280;35163;48.878;18.040;2023-05-03T08:57:43;99045.72;;;13.63;80.40
49297;BME280;35163;48.878;18.040;2023-05-03T09:00:10;99053.53;;;13.63;79.12
49297;BME280;35163;48.878;18.040;2023-05-03T09:02:38;99059.38;;;13.69;79.44
49297;BME280;35163;48.878;18.040;2023-05-03T09:10:29;99065.38;;;13.71;80.40
49297;BME280;35163;48.878;18.040;2023-05-03T09:13:00;99060.91;;;13.75;79.72
49297;BME280;35163;48.878;18.040;2023-05-03T09:15:28;99064.28;;;13.77;79.33
49297;BME280;35163;48.878;18.040;2023-05-03T09:18:19;99064.97;;;13.82;79.05
49297;BME280;35163;48.878;18.040;2023-05-03T09:20:49;99066.69;;;13.83;79.80
49297;BME280;35163;48.878;18.040;2023-05-03T09:23:29;99070.13;;;13.84;80.47
49297;BME280;35163;48.878;18.040;2023-05-03T09:26:00;99064.91;;;13.85;80.73
49297;BME280;35163;48.878;18.040;2023-05-03T09:28:27;99066.47;;;13.90;81.55
49297;BME280;35163;48.878;18.040;2023-05-03T09:31:04;99057.78;;;13.91;81.24
49297;BME280;35163;48.878;18.040;2023-05-03T09:33:39;99060.31;;;13.92;78.90
49297;BME280;35163;48.878;18.040;2023-05-03T09:36:06;99063.75;;;13.93;80.06
49297;BME280;35163;48.878;18.040;2023-05-03T09:38:34;99071.25;;;14.02;78.40
49297;BME280;35163;48.878;18.040;2023-05-03T09:41:04;99075.53;;;14.03;79.18
49297;BME280;35163;48.878;18.040;2023-05-03T09:43:33;99070.16;;;14.08;78.36
49297;BME280;35163;48.878;18.040;2023-05-03T09:46:09;99071.53;;;14.18;78.12
49297;BME280;35163;48.878;18.040;2023-05-03T09:48:40;99079.44;;;14.15;78.21
49297;BME280;35163;48.878;18.040;2023-05-03T09:51:08;99077.59;;;14.19;78.36
49297;BME280;35163;48.878;18.040;2023-05-03T09:53:37;99067.97;;;14.21;78.39
49297;BME280;35163;48.878;18.040;2023-05-03T09:56:05;99075.56;;;14.27;76.60
49297;BME280;35163;48.878;18.040;2023-05-03T09:58:39;99078.91;;;14.31;75.98
49297;BME280;35163;48.878;18.040;2023-05-03T10:01:09;99078.94;;;14.29;75.40
49297;BME280;35163;48.878;18.040;2023-05-03T10:03:47;99082.34;;;14.31;73.77
49297;BME280;35163;48.878;18.040;2023-05-03T10:06:31;99072.75;;;14.33;73.74
49297;BME280;35163;48.878;18.040;2023-05-03T10:09:11;99084.22;;;14.28;73.62
49297;BME280;35163;48.878;18.040;2023-05-03T10:11:43;99072.16;;;14.25;73.84
49297;BME280;35163;48.878;18.040;2023-05-03T10:14:13;99069.41;;;14.30;73.28
49297;BME280;35163;48.878;18.040;2023-05-03T10:16:43;99080.44;;;14.37;73.01
49297;BME280;35163;48.878;18.040;2023-05-03T10:19:29;99073.44;;;14.39;72.47
49297;BME280;35163;48.878;18.040;2023-05-03T10:24:28;99073.13;;;14.46;72.74
49297;BME280;35163;48.878;18.040;2023-05-03T10:26:55;99069.53;;;14.51;73.15
49297;BME280;35163;48.878;18.040;2023-05-03T10:32:02;99068.53;;;14.53;71.12
49297;BME280;35163;48.878;18.040;2023-05-03T10:34:33;99063.91;;;14.62;71.24
49297;BME280;35163;48.878;18.040;2023-05-03T10:37:02;99065.50;;;14.66;70.02
49297;BME280;35163;48.878;18.040;2023-05-03T10:39:33;99058.47;;;14.68;70.35
49297;BME280;35163;48.878;18.040;2023-05-03T10:42:07;99060.91;;;14.73;71.26
49297;BME280;35163;48.878;18.040;2023-05-03T10:44:38;99070.19;;;14.78;70.65
49297;BME280;35163;48.878;18.040;2023-05-03T10:47:11;99065.59;;;14.87;71.33
49297;BME280;35163;48.878;18.040;2023-05-03T10:49:38;99058.47;;;14.92;70.09
49297;BME280;35163;48.878;18.040;2023-05-03T10:55:12;99061.66;;;14.99;69.02
49297;BME280;35163;48.878;18.040;2023-05-03T10:57:41;99064.56;;;14.91;68.49
49297;BME280;35163;48.878;18.040;2023-05-03T11:05:27;99066.16;;;14.95;66.53
49297;BME280;35163;48.878;18.040;2023-05-03T11:08:19;99066.38;;;14.89;65.79
49297;BME280;35163;48.878;18.040;2023-05-03T11:10:48;99067.34;;;14.86;65.94
49297;BME280;35163;48.878;18.040;2023-05-03T11:13:15;99063.88;;;14.86;66.02
49297;BME280;35163;48.878;18.040;2023-05-03T11:15:42;99069.75;;;14.91;64.64
49297;BME280;35163;48.878;18.040;2023-05-03T11:18:10;99066.28;;;14.92;64.87
49297;BME280;35163;48.878;18.040;2023-05-03T11:20:37;99067.84;;;14.96;65.19
49297;BME280;35163;48.878;18.040;2023-05-03T11:23:04;99057.53;;;14.93;65.00
49297;BME280;35163;48.878;18.040;2023-05-03T11:25:32;99076.09;;;14.85;63.90
49297;BME280;35163;48.878;18.040;2023-05-03T11:28:00;99071.69;;;14.86;63.72
49297;BME280;35163;48.878;18.040;2023-05-03T11:30:28;99070.69;;;14.90;63.70
49297;BME280;35163;48.878;18.040;2023-05-03T11:32:55;99082.91;;;14.88;63.60
49297;BME280;35163;48.878;18.040;2023-05-03T11:35:22;99081.31;;;14.84;64.10
49297;BME280;35163;48.878;18.040;2023-05-03T11:37:52;99078.13;;;14.75;63.08
49297;BME280;35163;48.878;18.040;2023-05-03T11:40:21;99080.75;;;14.75;63.70
49297;BME280;35163;48.878;18.040;2023-05-03T11:42:52;99080.84;;;14.72;62.82
49297;BME280;35163;48.878;18.040;2023-05-03T11:45:21;99093.44;;;14.61;62.18
49297;BME280;35163;48.878;18.040;2023-05-03T11:47:48;99078.84;;;14.56;63.24
49297;BME280;35163;48.878;18.040;2023-05-03T11:50:17;99076.34;;;14.53;63.24
49297;BME280;35163;48.878;18.040;2023-05-03T11:52:44;99083.16;;;14.57;63.44
49297;BME280;35163;48.878;18.040;2023-05-03T11:55:11;99080.63;;;14.54;64.46
49297;BME280;35163;48.878;18.040;2023-05-03T11:57:38;99084.91;;;14.57;64.00
49297;BME280;35163;48.878;18.040;2023-05-03T12:00:15;99082.28;;;14.57;63.56
49297;BME280;35163;48.878;18.040;2023-05-03T12:02:49;99074.31;;;14.62;63.64
49297;BME280;35163;48.878;18.040;2023-05-03T12:05:20;99076.84;;;14.63;63.52
49297;BME280;35163;48.878;18.040;2023-05-03T12:07:49;99071.25;;;14.74;64.56
49297;BME280;35163;48.878;18.040;2023-05-03T12:10:18;99075.22;;;14.85;64.89
49297;BME280;35163;48.878;18.040;2023-05-03T12:13:00;99070.06;;;14.83;64.10
49297;BME280;35163;48.878;18.040;2023-05-03T12:15:37;99060.88;;;14.97;64.51
49297;BME280;35163;48.878;18.040;2023-05-03T12:18:10;99067.59;;;15.02;63.26
49297;BME280;35163;48.878;18.040;2023-05-03T12:20:38;99056.94;;;15.09;63.77
49297;BME280;35163;48.878;18.040;2023-05-03T12:23:08;99061.88;;;15.15;63.58
49297;BME280;35163;48.878;18.040;2023-05-03T12:25:36;99062.88;;;15.12;62.19
49297;BME280;35163;48.878;18.040;2023-05-03T12:28:05;99068.81;;;15.16;61.95
49297;BME280;35163;48.878;18.040;2023-05-03T12:30:36;99067.47;;;15.28;62.67
49297;BME280;35163;48.878;18.040;2023-05-03T12:33:06;99066.13;;;15.40;62.86
49297;BME280;35163;48.878;18.040;2023-05-03T12:35:38;99063.56;;;15.38;61.14
49297;BME280;35163;48.878;18.040;2023-05-03T12:38:06;99070.47;;;15.39;61.20
49297;BME280;35163;48.878;18.040;2023-05-03T12:40:35;99065.84;;;15.46;61.63
49297;BME280;35163;48.878;18.040;2023-05-03T12:43:02;99065.00;;;15.46;60.61
49297;BME280;35163;48.878;18.040;2023-05-03T12:45:29;99077.13;;;15.47;60.00
49297;BME280;35163;48.878;18.040;2023-05-03T12:48:00;99062.22;;;15.50;60.25
49297;BME280;35163;48.878;18.040;2023-05-03T12:50:28;99062.47;;;15.44;59.19
49297;BME280;35163;48.878;18.040;2023-05-03T12:52:57;99057.13;;;15.47;59.39
49297;BME280;35163;48.878;18.040;2023-05-03T12:55:28;99066.31;;;15.56;59.91
49297;BME280;35163;48.878;18.040;2023-05-03T12:58:00;99043.84;;;15.53;60.08
49297;BME280;35163;48.878;18.040;2023-05-03T13:00:31;99053.34;;;15.54;59.42
49297;BME280;35163;48.878;18.040;2023-05-03T13:03:02;99053.22;;;15.58;59.57
49297;BME280;35163;48.878;18.040;2023-05-03T13:05:32;99050.69;;;15.56;59.10
49297;BME280;35163;48.878;18.040;2023-05-03T13:08:02;99046.91;;;15.63;59.11
49297;BME280;35163;48.878;18.040;2023-05-03T13:10:38;99045.09;;;15.65;58.88
49297;BME280;35163;48.878;18.040;2023-05-03T13:13:07;99044.22;;;15.65;59.15
49297;BME280;35163;48.878;18.040;2023-05-03T13:15:35;99053.88;;;15.63;58.72
49297;BME280;35163;48.878;18.040;2023-05-03T13:18:06;99040.59;;;15.48;58.92
49297;BME280;35163;48.878;18.040;2023-05-03T13:20:34;99043.19;;;15.48;58.98
49297;BME280;35163;48.878;18.040;2023-05-03T13:23:01;99042.34;;;15.48;58.83
49297;BME280;35163;48.878;18.040;2023-05-03T13:25:27;99041.38;;;15.50;58.81